Warwick, MA (01378)

8:46 AM EDT on September 01, 2015 (GMT -0400)
Sentinel Elm Farm | | Change Station
CLOSE
Current Station
Personal Weather Station
Location: Athol, MA
Elevation: 883 ft
Nearby Weather Stations

Elev 883 ft 42.61 °N, 72.26 °W | Updated 59 seconds ago

Partly Cloudy
Partly Cloudy
69.6 °F
Feels Like 69.6 °F
N
0.0
Wind Variable Wind from ENE
Gusts 0.0 mph

Today
High -- | Low -- °F
--% Chance of Precip.
Yesterday
High -- | Low -- °F
Precip. -- in
6:13 AM 7:24 PM
Waning Gibbous, 89% visible
Pressure 30.06 in
Visibility 4.0 miles
Clouds Scattered Clouds 200 ft
Dew Point 66 °F
Humidity 87%
Rainfall 0.00 in
Snow Depth Not available.
UV 2.0 out of 12
Pollen 9.50 out of 12
Air Quality Not available.
Flu Activity Not available.
METAR KORE 011152Z AUTO 00000KT 4SM BR SCT002 16/16 A3007 RMK AO2 SLP180 T01610156 10167 20139 51013
Pressure 30.06 in
Visibility 4.0 miles
Clouds Scattered Clouds 200 ft
Dew Point 66 °F
Humidity 87%
Rainfall 0.00 in
Snow Depth Not available.
UV 2.0 out of 12
Pollen 9.50 out of 12
Air Quality Not available.
Flu Activity Not available.
METAR KORE 011152Z AUTO 00000KT 4SM BR SCT002 16/16 A3007 RMK AO2 SLP180 T01610156 10167 20139 51013

10-Day Weather Forecast

×

Almanac

Astronomy

Sep. 01, 2015 Rise Set
Actual Time
Civil Twilight
Nautical Twilight
Astronomical Twilight
Moon
Length of Visible Light
Length of Day
Tomorrow will be .
, % of the Moon is Illuminated

Today's Extremes

State Highs State Lows

Community

WunderPhotos

Upload Photos

1,851,510 photos uploaded!

WunderBlogs® & News

Nearby

Air Quality

  Air Quality AQ Index Pollutant
Not available.

Snow Depth

Station Depth Elevation

Earthquake Activity

City Distance Mag. Time & Date
Minimum magnitude displayed is 2.5.

Coastal Water Temperatures

Place Temperature

Stations

Nearby Weather Stations

Station Location Temp. Windchill Dew Point Humidity Wind Precip. Elev Updated Type